Time;durP1;ratioP1;P1;durP2;ratioP2;P2;SDS_P1;SDS_P2;PMS_P1;PMS_P2;Temp;Humidity;BMP_temperature;BMP_pressure;BME280_temperature;BME280_humidity;BME280_pressure;Samples;Min_cycle;Max_cycle;Signal;HPM_P1;HPM_P2
2023/02/21 02:15:11;;;;;;;;;12.00;12.00;;;;;20.94;38.92;102065.16;5035613;28;45300;-74
2023/02/21 02:18:06;;;;;;;;;13.00;13.00;;;;;20.94;38.87;102064.31;5017462;28;46321;-74
2023/02/21 02:21:05;;;;;;;;;13.50;12.25;;;;;20.94;38.72;102061.69;5034565;28;45411;-74
2023/02/21 02:23:43;;;;;;;;;13.25;13.25;;;;;20.93;38.80;102060.84;5034808;28;45425;-74
2023/02/21 02:26:24;;;;;;;;;12.00;11.25;;;;;20.92;38.73;102056.50;5035411;28;45473;-74
2023/02/21 02:28:53;;;;;;;;;11.75;10.00;;;;;20.92;38.93;102050.41;5035316;28;46462;-74
2023/02/21 02:31:46;;;;;;;;;15.00;11.00;;;;;20.92;38.92;102045.94;5035094;28;45360;-74
2023/02/21 02:34:44;;;;;;;;;14.00;11.00;;;;;20.91;38.75;102044.28;5035118;28;45453;-74
2023/02/21 02:37:30;;;;;;;;;16.25;12.50;;;;;20.91;39.01;102038.97;5034953;28;45449;-74
2023/02/21 02:40:16;;;;;;;;;14.00;12.00;;;;;20.91;38.72;102040.78;5034914;28;47413;-74
2023/02/21 02:43:09;;;;;;;;;15.50;14.50;;;;;20.91;38.59;102035.50;5035063;28;45390;-75
2023/02/21 02:45:44;;;;;;;;;13.75;13.75;;;;;20.90;38.73;102037.31;5035232;28;45601;-75
2023/02/21 02:48:16;;;;;;;;;16.75;15.25;;;;;20.90;38.76;102034.66;5035181;28;45398;-74
2023/02/21 02:50:46;;;;;;;;;14.00;11.25;;;;;20.91;38.55;102032.84;5034452;28;45996;-74
2023/02/21 02:53:14;;;;;;;;;14.25;12.00;;;;;20.90;38.57;102031.16;5034845;28;45446;-74
2023/02/21 02:55:46;;;;;;;;;16.75;14.75;;;;;20.90;38.39;102029.38;5035028;28;45255;-74
2023/02/21 02:58:12;;;;;;;;;15.25;12.75;;;;;20.90;38.79;102025.88;5038544;28;45395;-74
2023/02/21 03:00:44;;;;;;;;;16.75;13.25;;;;;20.89;38.20;102029.53;5038128;28;47154;-74
2023/02/21 03:03:44;;;;;;;;;15.25;14.25;;;;;20.91;38.33;102027.56;5038400;28;45491;-74
2023/02/21 03:06:48;;;;;;;;;11.00;10.75;;;;;20.91;38.66;102019.63;5038221;28;45483;-74
2023/02/21 03:09:18;;;;;;;;;13.00;12.75;;;;;20.92;38.18;102018.66;4976644;28;45556;-74
2023/02/21 03:11:59;;;;;;;;;12.50;12.50;;;;;20.92;38.66;102016.81;4976378;28;45480;-74
2023/02/21 03:14:30;;;;;;;;;13.25;11.25;;;;;20.91;38.71;102015.19;4976493;28;45396;-74
2023/02/21 03:17:01;;;;;;;;;12.25;12.00;;;;;20.92;38.57;102008.06;4976648;28;45382;-74
2023/02/21 03:19:32;;;;;;;;;16.00;13.00;;;;;20.92;38.31;102000.13;4976162;28;45320;-74
2023/02/21 03:22:05;;;;;;;;;13.00;13.00;;;;;20.92;38.72;102000.94;4976332;28;46281;-74
2023/02/21 03:24:34;;;;;;;;;14.25;12.50;;;;;20.92;38.50;101998.31;4976325;28;45666;-74
2023/02/21 03:27:04;;;;;;;;;15.75;12.50;;;;;20.92;38.62;102002.78;4976538;28;45377;-74
2023/02/21 03:29:31;;;;;;;;;10.50;9.50;;;;;20.92;38.37;101993.00;4976464;28;45506;-74
2023/02/21 03:34:37;;;;;;;;;9.50;9.00;;;;;20.92;38.73;101989.56;4975642;28;45231;-74
2023/02/21 03:37:05;;;;;;;;;16.75;13.75;;;;;20.91;38.39;101987.88;4976335;28;45439;-74
2023/02/21 03:39:31;;;;;;;;;16.75;14.00;;;;;20.91;38.58;101991.38;4975997;28;45446;-73
2023/02/21 03:41:56;;;;;;;;;13.75;13.25;;;;;20.91;38.44;101983.44;4976115;28;45364;-73
2023/02/21 03:44:21;;;;;;;;;15.75;13.50;;;;;20.90;38.32;101984.41;4994879;28;45353;-74
2023/02/21 03:46:46;;;;;;;;;16.25;14.25;;;;;20.84;38.68;101977.06;5037920;28;45465;-74
2023/02/21 03:49:12;;;;;;;;;15.00;13.75;;;;;20.91;38.28;101985.22;5037817;28;45307;-73
2023/02/21 03:51:37;;;;;;;;;16.00;14.25;;;;;20.90;38.42;101983.56;5037564;28;47274;-74
2023/02/21 03:54:02;;;;;;;;;14.25;13.25;;;;;20.90;38.70;101980.91;5037825;28;45351;-74
2023/02/21 03:56:28;;;;;;;;;13.50;11.50;;;;;20.89;38.45;101985.38;5037789;28;45435;-73
2023/02/21 03:58:53;;;;;;;;;16.25;14.75;;;;;20.89;38.60;101979.25;5037559;28;45322;-74
2023/02/21 04:01:18;;;;;;;;;15.25;13.25;;;;;20.89;38.59;101979.25;5037254;28;46925;-73
2023/02/21 04:03:44;;;;;;;;;13.00;12.50;;;;;20.88;38.45;101970.47;5037174;28;45451;-74
2023/02/21 04:06:09;;;;;;;;;14.75;12.00;;;;;20.87;38.02;101963.50;5037698;28;45346;-74
2023/02/21 04:08:34;;;;;;;;;11.25;10.25;;;;;20.87;38.07;101966.16;5037557;28;45445;-74
2023/02/21 04:11:00;;;;;;;;;16.00;13.50;;;;;20.87;38.06;101960.88;5037258;28;47100;-73
2023/02/21 04:13:25;;;;;;;;;16.00;15.25;;;;;20.88;37.99;101964.34;5037440;28;45391;-74
2023/02/21 04:15:50;;;;;;;;;14.25;13.00;;;;;20.87;38.27;101957.41;5037566;28;46066;-74
2023/02/21 04:18:16;;;;;;;;;14.50;12.00;;;;;20.86;38.35;101951.28;5036897;28;45354;-74
2023/02/21 04:20:41;;;;;;;;;11.00;11.00;;;;;20.86;38.26;101961.88;5037033;28;47041;-74
2023/02/21 04:23:06;;;;;;;;;13.75;11.25;;;;;20.84;38.15;101948.78;5037378;28;45329;-74
2023/02/21 04:25:32;;;;;;;;;14.50;13.50;;;;;20.87;38.28;101957.41;5037408;28;45588;-74
2023/02/21 04:27:57;;;;;;;;;16.25;14.25;;;;;20.80;38.42;101935.97;5037254;28;45401;-74
2023/02/21 04:30:23;;;;;;;;;22.00;13.25;;;;;20.83;38.12;101947.13;5036811;28;45385;-74
2023/02/21 04:32:48;;;;;;;;;15.25;12.00;;;;;20.87;38.24;101947.66;5036580;28;45307;-73
2023/02/21 04:35:14;;;;;;;;;11.00;11.00;;;;;20.88;37.85;101936.09;5036876;28;45485;-74
2023/02/21 04:37:39;;;;;;;;;17.00;15.75;;;;;20.87;38.36;101936.25;5019091;28;45308;-74
2023/02/21 04:40:05;;;;;;;;;18.50;14.00;;;;;20.87;38.05;101934.41;5036775;28;45557;-74
2023/02/21 04:42:30;;;;;;;;;17.25;14.75;;;;;20.88;38.06;101940.53;5036685;28;45548;-74
2023/02/21 04:44:56;;;;;;;;;13.00;13.00;;;;;20.88;38.35;101940.53;5036919;28;45389;-74
2023/02/21 04:47:21;;;;;;;;;14.50;13.00;;;;;20.86;38.03;101948.63;5036563;28;45350;-74
2023/02/21 04:49:50;;;;;;;;;14.00;14.00;;;;;20.88;38.40;101945.84;5036662;28;45383;-74
2023/02/21 04:52:19;;;;;;;;;14.00;14.00;;;;;20.89;38.14;101950.16;5036564;28;45361;-74
2023/02/21 04:54:44;;;;;;;;;13.00;12.75;;;;;20.84;38.35;101943.47;5036690;28;45304;-74
2023/02/21 04:57:10;;;;;;;;;16.25;14.00;;;;;20.88;38.40;101944.03;5036613;28;45347;-74
2023/02/21 04:59:35;;;;;;;;;11.50;11.25;;;;;20.79;37.84;101932.50;5036272;28;52072;-74
2023/02/21 05:02:00;;;;;;;;;15.50;11.25;;;;;20.89;38.32;101950.16;5035937;28;45307;-73
2023/02/21 05:04:26;;;;;;;;;12.75;12.00;;;;;20.85;38.13;101950.44;5036565;28;45351;-74
2023/02/21 05:06:52;;;;;;;;;16.00;15.00;;;;;20.89;38.25;101958.09;5035555;28;45465;-74
2023/02/21 05:09:17;;;;;;;;;12.00;12.00;;;;;20.88;38.15;101951.13;5036218;28;46516;-72
2023/02/21 05:11:42;;;;;;;;;12.50;11.50;;;;;20.88;38.19;101951.13;5036313;28;45351;-74
2023/02/21 05:14:08;;;;;;;;;16.00;14.00;;;;;20.87;38.31;101946.84;5036551;28;45391;-74
2023/02/21 05:16:33;;;;;;;;;13.75;12.00;;;;;20.77;37.94;101928.34;5035923;28;45398;-74
2023/02/21 05:19:01;;;;;;;;;14.50;13.50;;;;;20.85;38.03;101937.22;5035614;28;47200;-74
2023/02/21 05:21:26;;;;;;;;;15.50;12.75;;;;;20.86;37.86;101946.00;5036168;28;45271;-74
2023/02/21 05:23:54;;;;;;;;;12.25;11.50;;;;;20.84;37.79;101940.84;5036327;28;45442;-74
2023/02/21 05:26:23;;;;;;;;;13.25;12.50;;;;;20.85;37.96;101941.66;5036330;28;45410;-73
2023/02/21 05:28:49;;;;;;;;;15.50;13.75;;;;;20.83;37.86;101930.41;5035836;28;46960;-74
2023/02/21 05:31:14;;;;;;;;;13.50;12.25;;;;;20.82;37.83;101929.56;5035460;28;45559;-74
2023/02/21 05:33:39;;;;;;;;;14.75;13.00;;;;;20.82;37.85;101929.56;5035681;28;45758;-74
2023/02/21 05:36:05;;;;;;;;;14.75;13.25;;;;;20.83;37.73;101933.88;5035943;28;45452;-74
2023/02/21 05:38:30;;;;;;;;;8.75;6.75;;;;;20.83;37.92;101925.13;5035951;28;46346;-74
2023/02/21 05:40:56;;;;;;;;;15.25;13.00;;;;;20.83;37.87;101925.97;5035880;28;45275;-74
2023/02/21 05:43:22;;;;;;;;;12.00;11.50;;;;;20.82;37.98;101926.94;5036085;28;45211;-74
2023/02/21 05:45:47;;;;;;;;;11.50;9.75;;;;;20.82;38.06;101926.94;5035784;28;45414;-75
2023/02/21 05:48:13;;;;;;;;;16.00;12.00;;;;;20.78;38.16;101917.63;5035889;28;45918;-74
2023/02/21 05:50:38;;;;;;;;;14.00;12.25;;;;;20.82;37.94;101919.00;5035711;28;45326;-73
2023/02/21 05:53:04;;;;;;;;;14.25;13.25;;;;;20.79;37.88;101911.34;5035874;28;45835;-72
2023/02/21 05:55:30;;;;;;;;;15.25;11.75;;;;;20.79;37.90;101913.97;5035922;28;45336;-74
2023/02/21 05:57:55;;;;;;;;;14.75;11.50;;;;;20.81;38.00;101914.69;5035468;28;48732;-74
2023/02/21 06:00:25;;;;;;;;;13.00;11.25;;;;;20.73;38.18;101909.28;5035191;28;45403;-73
2023/02/21 06:02:51;;;;;;;;;15.75;12.25;;;;;20.81;38.01;101922.63;5015845;28;45436;-73
2023/02/21 06:05:20;;;;;;;;;14.75;13.00;;;;;20.81;37.81;101917.34;5015819;28;45405;-72
2023/02/21 06:07:46;;;;;;;;;11.75;10.00;;;;;20.83;37.79;101925.13;5015559;28;47250;-72
2023/02/21 06:10:12;;;;;;;;;11.50;9.75;;;;;20.83;37.98;101919.81;5015508;28;45351;-74
2023/02/21 06:12:37;;;;;;;;;11.25;11.25;;;;;20.82;37.79;101921.63;5015567;28;45319;-74
2023/02/21 06:15:06;;;;;;;;;13.75;13.25;;;;;20.84;37.88;101924.16;5015218;28;45322;-74
2023/02/21 06:17:38;;;;;;;;;11.75;10.00;;;;;20.83;37.43;101925.13;5015553;28;46060;-74
2023/02/21 06:20:04;;;;;;;;;14.50;13.25;;;;;20.83;38.12;101922.47;5015354;28;45355;-74
2023/02/21 06:22:29;;;;;;;;;13.00;11.25;;;;;20.81;37.74;101920.00;5015548;28;45415;-74
2023/02/21 06:24:55;;;;;;;;;12.25;11.00;;;;;20.83;37.57;101922.47;5015420;28;45263;-74
2023/02/21 06:27:20;;;;;;;;;13.50;12.25;;;;;20.83;37.57;101923.31;5015367;28;45353;-74
2023/02/21 06:29:45;;;;;;;;;12.75;12.25;;;;;20.76;37.86;101911.66;5015619;28;45450;-74
2023/02/21 06:32:11;;;;;;;;;13.00;13.00;;;;;20.84;37.78;101921.50;5037567;28;45359;-74
2023/02/21 06:34:36;;;;;;;;;12.00;12.00;;;;;20.82;37.97;101921.63;5038893;28;45529;-74
2023/02/21 06:37:02;;;;;;;;;15.25;11.50;;;;;20.80;37.93;101918.31;5020744;28;46112;-74
2023/02/21 06:39:27;;;;;;;;;13.25;10.75;;;;;20.81;37.77;101917.34;5038702;28;45448;-74
2023/02/21 06:41:53;;;;;;;;;12.00;12.00;;;;;20.82;37.81;101915.50;5038387;28;45303;-74
2023/02/21 06:44:19;;;;;;;;;12.75;11.50;;;;;20.81;37.60;101920.00;5038727;28;45357;-74
2023/02/21 06:46:45;;;;;;;;;11.50;10.25;;;;;20.80;37.99;101910.38;5038731;28;46024;-74
2023/02/21 06:49:11;;;;;;;;;12.75;11.75;;;;;20.79;37.34;101906.06;5038463;28;46051;-74
2023/02/21 06:51:39;;;;;;;;;13.75;13.00;;;;;20.81;37.63;101905.91;5038522;28;45312;-73
2023/02/21 06:54:04;;;;;;;;;11.00;9.00;;;;;20.80;37.83;101906.88;5038566;28;45636;-74
2023/02/21 06:56:29;;;;;;;;;12.25;12.00;;;;;20.79;37.65;101905.25;5037883;28;45792;-74
2023/02/21 06:58:56;;;;;;;;;12.25;10.75;;;;;20.79;37.39;101900.75;5038350;28;45459;-74
2023/02/21 07:01:23;;;;;;;;;12.50;11.50;;;;;20.73;37.57;101886.34;5038357;28;45516;-74
2023/02/21 07:03:48;;;;;;;;;12.75;11.25;;;;;20.79;37.46;101898.13;5038299;28;45372;-74
2023/02/21 07:06:14;;;;;;;;;14.75;11.75;;;;;20.78;37.92;101887.69;5038241;28;46136;-74
2023/02/21 07:08:40;;;;;;;;;10.25;10.00;;;;;20.74;37.76;101881.84;5038234;28;45423;-74
2023/02/21 07:11:05;;;;;;;;;10.25;10.00;;;;;20.68;37.82;101878.00;5038217;28;45329;-74
2023/02/21 07:13:32;;;;;;;;;15.00;11.75;;;;;20.78;38.09;101885.88;5038525;28;45391;-76
2023/02/21 07:15:57;;;;;;;;;11.00;10.00;;;;;20.78;37.89;101890.34;5027553;28;46215;-73
2023/02/21 07:18:22;;;;;;;;;10.00;10.00;;;;;20.78;37.85;101899.13;5036698;28;45402;-73
2023/02/21 07:20:48;;;;;;;;;12.50;12.00;;;;;20.78;38.14;101896.47;5036803;28;45426;-74
2023/02/21 07:23:14;;;;;;;;;10.25;10.25;;;;;20.79;38.10;101902.59;5036999;28;45347;-74
2023/02/21 07:25:39;;;;;;;;;11.50;11.50;;;;;20.79;38.39;101900.75;5037010;28;46292;-75
2023/02/21 07:28:04;;;;;;;;;8.25;8.25;;;;;20.75;38.60;101896.75;5037523;28;45517;-75
2023/02/21 07:30:30;;;;;;;;;12.50;12.00;;;;;20.79;38.02;101903.41;5037585;28;45455;-71
2023/02/21 07:32:56;;;;;;;;;10.25;10.25;;;;;20.81;38.37;101904.13;5037912;28;45408;-72
2023/02/21 07:35:21;;;;;;;;;11.25;10.00;;;;;20.78;38.27;101899.13;5036854;28;47346;-75
2023/02/21 07:37:46;;;;;;;;;12.50;10.00;;;;;20.83;38.68;101910.09;5035806;28;45344;-72
2023/02/21 07:40:12;;;;;;;;;10.00;10.00;;;;;20.81;38.13;101898.81;5035634;28;45422;-72
2023/02/21 07:42:42;;;;;;;;;10.25;10.25;;;;;20.84;38.43;101908.28;5035465;28;45454;-72
2023/02/21 07:45:08;;;;;;;;;9.25;8.25;;;;;20.82;38.56;101904.94;5036410;28;47130;-72
2023/02/21 07:47:33;;;;;;;;;12.25;9.50;;;;;20.82;38.28;101910.22;5022392;28;45520;-72
2023/02/21 07:49:58;;;;;;;;;12.00;10.00;;;;;20.84;38.36;101927.59;5027865;28;45488;-71
2023/02/21 07:52:24;;;;;;;;;12.25;10.00;;;;;20.84;37.98;101929.44;5030743;28;45527;-73
2023/02/21 07:54:49;;;;;;;;;10.50;7.25;;;;;20.85;38.52;101924.00;5030984;28;48639;-73
2023/02/21 07:57:15;;;;;;;;;9.75;9.00;;;;;20.85;38.33;101926.63;5031032;28;45759;-73
2023/02/21 07:59:41;;;;;;;;;9.25;9.00;;;;;20.84;38.42;101932.91;5031425;28;45674;-73
2023/02/21 08:02:06;;;;;;;;;10.25;9.25;;;;;20.84;38.05;101922.31;5031179;28;45356;-73
2023/02/21 08:04:31;;;;;;;;;12.75;9.75;;;;;20.80;38.08;101918.31;5030856;28;46131;-72
2023/02/21 08:06:59;;;;;;;;;10.50;8.00;;;;;20.79;38.40;101919.28;5030553;28;45518;-72
2023/02/21 08:09:24;;;;;;;;;10.50;8.75;;;;;20.83;38.39;101927.75;5030208;28;45486;-72
2023/02/21 08:11:49;;;;;;;;;12.75;9.75;;;;;20.82;38.29;101929.56;5028442;28;45467;-73
2023/02/21 08:14:15;;;;;;;;;10.25;10.25;;;;;20.82;38.23;101926.94;5030528;28;46164;-73
2023/02/21 08:16:40;;;;;;;;;7.50;7.50;;;;;20.81;38.39;101925.28;5031162;28;45579;-73
2023/02/21 08:19:08;;;;;;;;;8.00;8.00;;;;;20.81;38.17;101925.28;5030838;28;45554;-73
2023/02/21 08:21:33;;;;;;;;;12.25;9.00;;;;;20.82;38.33;101918.16;5030611;28;45980;-72
2023/02/21 08:23:59;;;;;;;;;10.50;9.00;;;;;20.81;38.05;101921.78;5027874;28;48437;-73
2023/02/21 08:26:24;;;;;;;;;10.25;9.00;;;;;20.81;37.94;101927.09;5030265;28;45420;-72
2023/02/21 08:28:50;;;;;;;;;9.75;9.50;;;;;20.80;38.04;101923.59;5030581;28;45450;-72
2023/02/21 08:31:15;;;;;;;;;11.75;8.50;;;;;20.74;38.19;101906.50;5030700;28;45406;-73
2023/02/21 08:33:40;;;;;;;;;9.50;9.50;;;;;20.79;37.95;101923.75;5030655;28;46077;-72
2023/02/21 08:36:06;;;;;;;;;11.25;10.25;;;;;20.79;38.11;101924.56;4986425;28;1277822;-72
2023/02/21 08:38:31;;;;;;;;;3.50;3.25;;;;;20.81;38.09;101927.09;5030916;28;45565;-72
2023/02/21 08:40:56;;;;;;;;;8.75;8.25;;;;;20.73;37.88;101919.88;5031470;28;45472;-73
2023/02/21 08:43:23;;;;;;;;;9.25;9.00;;;;;20.80;37.85;101933.34;5031793;28;45488;-73
2023/02/21 08:45:49;;;;;;;;;10.50;8.75;;;;;20.72;38.20;101919.03;5031351;28;45585;-73
2023/02/21 08:48:14;;;;;;;;;12.00;9.25;;;;;20.78;38.23;101925.56;5031715;28;45457;-73
2023/02/21 08:50:40;;;;;;;;;8.50;8.50;;;;;20.80;37.92;101930.69;5032221;28;45551;-71
2023/02/21 08:53:05;;;;;;;;;5.25;5.25;;;;;20.79;37.80;101929.84;5030324;28;45980;-72
2023/02/21 08:55:31;;;;;;;;;12.00;9.00;;;;;20.81;37.66;101929.72;5031136;28;45706;-72
2023/02/21 08:57:56;;;;;;;;;10.25;9.00;;;;;20.70;38.12;101907.78;5031062;28;46523;-72
2023/02/21 09:00:23;;;;;;;;;10.25;8.75;;;;;20.80;38.17;101923.59;5031248;28;45588;-72
2023/02/21 09:02:51;;;;;;;;;7.00;7.00;;;;;20.73;38.05;101909.28;5030603;28;46132;-74
2023/02/21 09:05:23;;;;;;;;;7.25;7.00;;;;;20.79;37.79;101916.63;5030866;28;45524;-76
2023/02/21 09:07:49;;;;;;;;;9.25;9.00;;;;;20.79;37.57;101908.69;5032585;28;46433;-74
2023/02/21 09:10:16;;;;;;;;;11.50;8.25;;;;;20.70;37.73;101893.72;5029796;28;45423;-73
2023/02/21 09:12:41;;;;;;;;;8.50;8.00;;;;;20.79;37.96;101902.59;5030160;28;45830;-73
2023/02/21 09:15:07;;;;;;;;;10.00;8.25;;;;;20.81;37.70;101905.91;5029598;28;45397;-75
2023/02/21 09:17:34;;;;;;;;;11.25;8.25;;;;;20.81;37.54;101904.13;5032330;28;45804;-76
2023/02/21 09:20:01;;;;;;;;;7.50;7.50;;;;;20.80;37.58;101905.09;5028903;28;45781;-77
2023/02/21 09:22:27;;;;;;;;;7.00;6.00;;;;;20.72;38.08;101889.94;5028790;28;47123;-76
2023/02/21 09:24:52;;;;;;;;;8.25;8.00;;;;;20.82;37.76;101908.41;5029316;28;45527;-76
2023/02/21 09:27:17;;;;;;;;;9.25;8.25;;;;;20.82;37.55;101911.06;5029059;28;45858;-74
2023/02/21 09:29:44;;;;;;;;;8.25;8.25;;;;;20.82;37.84;101910.22;5029737;28;45740;-76
2023/02/21 09:32:09;;;;;;;;;11.50;10.25;;;;;20.83;37.44;101907.44;5029478;28;47681;-75
2023/02/21 09:34:35;;;;;;;;;7.25;7.25;;;;;20.83;37.73;101894.22;5029239;28;45479;-76
2023/02/21 09:37:04;;;;;;;;;8.50;7.00;;;;;20.84;37.58;101910.94;5028776;28;45362;-75
2023/02/21 09:39:30;;;;;;;;;4.25;4.25;;;;;20.83;37.59;101899.50;5029602;28;45556;-75
2023/02/21 09:41:56;;;;;;;;;8.00;8.00;;;;;20.84;37.55;101900.34;5028984;28;46532;-74
2023/02/21 09:44:24;;;;;;;;;10.00;10.00;;;;;20.85;37.77;101892.25;5031168;28;45560;-76
2023/02/21 09:46:57;;;;;;;;;8.75;8.00;;;;;20.86;37.82;101893.09;5028216;28;45510;-76
2023/02/21 09:49:29;;;;;;;;;9.50;9.50;;;;;20.86;37.62;101898.38;5029109;28;45420;-76
2023/02/21 09:51:56;;;;;;;;;11.00;8.75;;;;;20.86;37.75;101895.72;5028203;28;45572;-75
2023/02/21 09:54:22;;;;;;;;;8.75;8.50;;;;;20.87;37.70;101888.63;5028948;28;45568;-75
2023/02/21 09:56:47;;;;;;;;;11.50;10.00;;;;;20.85;37.61;101886.13;5029206;28;45782;-75
2023/02/21 09:59:13;;;;;;;;;7.50;7.00;;;;;20.88;37.92;101891.13;5029123;28;45794;-76
2023/02/21 10:02:00;;;;;;;;;7.50;6.00;;;;;20.89;38.05;101892.81;5029060;28;45593;-76
2023/02/21 10:04:37;;;;;;;;;7.25;7.00;;;;;20.91;37.63;101884.72;5011334;28;45600;-75
2023/02/21 10:07:12;;;;;;;;;10.50;10.00;;;;;20.91;37.78;101879.41;5027968;28;45660;-73
2023/02/21 10:10:12;;;;;;;;;8.75;8.25;;;;;20.92;37.67;101879.25;5029304;28;45481;-76
2023/02/21 10:12:54;;;;;;;;;8.75;7.25;;;;;20.91;37.76;101880.25;4951399;28;47016;-76
2023/02/21 10:15:47;;;;;;;;;9.25;7.50;;;;;20.96;37.69;101888.59;4950583;28;45524;-75
2023/02/21 10:18:44;;;;;;;;;8.75;8.00;;;;;21.00;37.95;101885.66;4949568;28;45602;-75
2023/02/21 10:21:23;;;;;;;;;9.25;7.00;;;;;21.02;37.81;101894.31;4950637;28;46380;-75
2023/02/21 10:23:53;;;;;;;;;8.75;8.75;;;;;21.01;37.94;101879.34;4953031;28;45649;-75
2023/02/21 10:26:23;;;;;;;;;10.00;7.00;;;;;21.05;37.62;101888.72;4951742;28;45511;-75
2023/02/21 10:28:51;;;;;;;;;9.25;7.75;;;;;21.05;37.65;101889.53;4951726;28;45669;-75
2023/02/21 10:31:33;;;;;;;;;9.25;7.75;;;;;21.05;37.73;101886.88;4952618;28;45640;-74
2023/02/21 10:33:59;;;;;;;;;9.00;8.00;;;;;21.04;37.77;101881.75;4950081;28;45619;-74
2023/02/21 10:36:26;;;;;;;;;9.75;8.00;;;;;21.05;37.49;101875.50;4951096;28;45704;-74
2023/02/21 10:39:02;;;;;;;;;10.50;9.00;;;;;21.06;37.57;101882.44;4934781;28;45832;-71
2023/02/21 10:41:30;;;;;;;;;8.50;8.00;;;;;21.05;37.56;101881.59;4947910;28;45747;-76
2023/02/21 10:44:03;;;;;;;;;8.00;8.00;;;;;21.06;37.54;101880.63;4948480;28;46977;-73
2023/02/21 10:46:33;;;;;;;;;8.00;6.00;;;;;21.07;37.40;101876.16;4949533;28;45857;-74
2023/02/21 10:49:23;;;;;;;;;6.50;6.50;;;;;21.08;37.67;101884.94;4964289;28;45480;-74
2023/02/21 10:52:09;;;;;;;;;5.25;5.25;;;;;21.06;37.69;101883.25;4990316;28;46628;-73
2023/02/21 10:54:35;;;;;;;;;9.75;8.50;;;;;21.08;37.99;101877.00;4992781;28;48480;-75
2023/02/21 10:57:05;;;;;;;;;8.25;6.50;;;;;21.09;37.89;101876.00;4994445;28;45524;-74
2023/02/21 10:59:33;;;;;;;;;9.50;7.25;;;;;21.09;37.48;101873.34;4992961;28;45637;-74
2023/02/21 11:02:01;;;;;;;;;8.00;7.75;;;;;21.10;37.96;101877.69;4995265;28;45489;-73
2023/02/21 11:04:37;;;;;;;;;9.75;8.00;;;;;21.10;37.80;101870.59;4989920;28;45532;-74
2023/02/21 11:07:09;;;;;;;;;10.00;7.00;;;;;21.11;37.68;101863.44;4996381;28;45741;-75
2023/02/21 11:09:45;;;;;;;;;6.00;6.00;;;;;21.08;37.93;101853.19;4998181;28;45552;-74
2023/02/21 11:12:28;;;;;;;;;5.00;5.00;;;;;21.13;37.81;101867.63;4994821;28;45884;-74
2023/02/21 11:14:56;;;;;;;;;5.75;5.50;;;;;21.13;37.65;101859.66;4990514;28;46533;-74
2023/02/21 11:17:31;;;;;;;;;8.25;8.25;;;;;21.04;37.95;101839.41;4995664;28;45521;-74
2023/02/21 11:19:59;;;;;;;;;7.50;7.00;;;;;21.16;37.64;101856.72;4992313;28;47137;-75
2023/02/21 11:22:33;;;;;;;;;11.00;6.75;;;;;21.17;37.69;101858.41;4994310;28;45512;-74
2023/02/21 11:25:07;;;;;;;;;6.75;5.75;;;;;21.18;37.49;101843.38;4997090;28;46404;-74
2023/02/21 11:27:37;;;;;;;;;5.25;5.25;;;;;21.18;38.02;101840.72;4994402;28;45528;-74
2023/02/21 11:30:14;;;;;;;;;6.50;6.50;;;;;21.19;37.60;101831.78;4993194;28;45454;-74
2023/02/21 11:32:42;;;;;;;;;6.25;6.25;;;;;21.18;37.82;101832.78;4994369;28;45775;-73
2023/02/21 11:35:19;;;;;;;;;6.75;6.00;;;;;21.20;37.79;101824.69;5012864;28;46646;-74
2023/02/21 11:37:51;;;;;;;;;6.50;6.50;;;;;21.20;37.84;101819.38;5031062;28;45830;-74
2023/02/21 11:40:34;;;;;;;;;7.50;6.75;;;;;21.15;37.93;101810.09;5033213;28;45459;-74
2023/02/21 11:43:17;;;;;;;;;8.50;6.50;;;;;21.21;37.52;101813.94;5016358;28;45588;-74
2023/02/21 11:45:54;;;;;;;;;9.50;9.50;;;;;21.21;37.51;101806.00;5031684;28;47199;-74
2023/02/21 11:48:29;;;;;;;;;9.00;7.25;;;;;21.11;37.70;101784.91;5032257;28;45848;-73
2023/02/21 11:50:57;;;;;;;;;8.00;6.50;;;;;21.16;37.66;101784.44;5029891;28;45600;-72
2023/02/21 11:53:34;;;;;;;;;7.00;5.75;;;;;21.21;37.88;101786.66;5030467;28;45549;-72
2023/02/21 11:56:06;;;;;;;;;4.00;4.00;;;;;21.23;37.50;101787.34;5029719;28;46447;-73
2023/02/21 11:58:55;;;;;;;;;5.50;5.50;;;;;21.22;37.85;101780.38;5030123;28;45545;-76
2023/02/21 12:01:30;;;;;;;;;7.50;7.50;;;;;21.23;37.83;101774.09;5032935;28;45726;-75
2023/02/21 12:04:01;;;;;;;;;6.25;6.25;;;;;21.24;37.77;101766.00;5031257;28;45574;-75
2023/02/21 12:06:45;;;;;;;;;6.00;6.00;;;;;21.23;37.98;101763.50;5026573;28;46367;-75
2023/02/21 12:09:18;;;;;;;;;6.25;6.00;;;;;21.22;38.01;101764.47;5026593;28;45605;-74
2023/02/21 12:11:50;;;;;;;;;6.00;6.00;;;;;21.22;38.01;101753.91;5026501;28;45605;-74
2023/02/21 12:14:43;;;;;;;;;10.00;8.00;;;;;21.23;38.02;101751.13;5030082;28;45546;-75
2023/02/21 12:17:33;;;;;;;;;7.00;7.00;;;;;21.20;38.07;101737.34;5031875;28;47089;-75
2023/02/21 12:20:14;;;;;;;;;8.50;8.50;;;;;21.26;38.95;101740.19;5020895;28;45510;-75
2023/02/21 12:22:57;;;;;;;;;6.25;6.25;;;;;21.28;39.08;101735.63;5031752;28;45485;-75
2023/02/21 12:25:33;;;;;;;;;9.00;8.00;;;;;21.31;39.25;101736.28;5029849;28;45482;-74
2023/02/21 12:28:01;;;;;;;;;12.00;8.50;;;;;21.32;39.02;101722.03;5029570;28;46209;-74
2023/02/21 12:30:48;;;;;;;;;10.00;7.50;;;;;21.33;38.85;101710.47;5029865;28;45592;-74
2023/02/21 12:33:36;;;;;;;;;15.25;13.00;;;;;21.36;39.67;101711.03;5031529;28;45531;-74
2023/02/21 12:36:39;;;;;;;;;19.25;17.75;;;;;21.38;38.63;101710.84;5031218;28;45407;-74
2023/02/21 12:39:15;;;;;;;;;17.00;16.25;;;;;21.35;39.60;101693.47;5031065;28;47363;-74
2023/02/21 12:41:41;;;;;;;;;13.25;12.75;;;;;21.35;39.27;101690.81;5029031;28;45513;-74
2023/02/21 12:44:23;;;;;;;;;16.00;14.50;;;;;21.37;39.48;101690.66;5031891;28;45491;-74
2023/02/21 12:47:03;;;;;;;;;16.50;12.50;;;;;21.37;39.76;101680.06;5031412;28;45514;-75
2023/02/21 12:49:48;;;;;;;;;14.75;13.00;;;;;21.37;39.84;101677.41;5031809;28;46458;-74
2023/02/21 12:52:29;;;;;;;;;14.00;13.00;;;;;21.37;40.01;101658.88;5029591;28;45420;-75
2023/02/21 12:55:00;;;;;;;;;18.50;12.75;;;;;21.40;40.20;101658.56;5027915;28;45488;-75
2023/02/21 12:57:45;;;;;;;;;16.25;12.00;;;;;21.39;40.16;101655.09;5030803;28;45530;-74
2023/02/21 13:00:16;;;;;;;;;12.50;11.00;;;;;21.40;40.47;101651.47;5027617;28;46590;-73
2023/02/21 13:02:55;;;;;;;;;13.00;12.00;;;;;21.39;40.14;101649.78;5031368;28;45493;-75
2023/02/21 13:05:32;;;;;;;;;18.00;15.00;;;;;21.39;39.88;101641.84;5028978;28;45795;-74
2023/02/21 13:08:04;;;;;;;;;12.00;11.75;;;;;21.40;40.12;101632.94;5031239;28;45465;-74
2023/02/21 13:10:47;;;;;;;;;16.00;13.00;;;;;;;;5030516;28;46148;-74
2023/02/21 13:13:17;;;;;;;;;11.75;11.75;;;;;21.37;40.69;101606.78;5028255;28;45553;-73
2023/02/21 13:15:45;;;;;;;;;11.00;10.75;;;;;21.39;40.55;101607.44;5029554;28;45805;-73
2023/02/21 13:18:33;;;;;;;;;13.25;10.25;;;;;21.45;40.17;101606.00;5031924;28;45505;-73
2023/02/21 13:21:16;;;;;;;;;11.75;10.50;;;;;21.36;40.25;101589.25;4953259;28;47487;-73
2023/02/21 13:27:01;;;;;;;;;11.50;11.50;;;;;21.37;40.38;101564.41;4949805;28;45420;-75
2023/02/21 13:29:32;;;;;;;;;15.00;10.50;;;;;21.46;40.55;101578.53;4959871;28;45578;-74
2023/02/21 13:32:07;;;;;;;;;14.00;9.25;;;;;21.47;40.39;101574.06;4954486;28;45463;-75
2023/02/21 13:34:39;;;;;;;;;6.75;5.25;;;;;21.47;40.58;101560.81;4955883;28;45548;-75
2023/02/21 13:37:12;;;;;;;;;14.00;10.00;;;;;21.40;40.39;101544.75;4935794;28;45502;-75
2023/02/21 13:39:45;;;;;;;;;11.25;10.75;;;;;21.46;40.69;101549.41;4952230;28;45632;-75
2023/02/21 13:42:23;;;;;;;;;10.75;8.50;;;;;21.47;40.36;101539.63;4958392;28;46357;-75
2023/02/21 13:45:09;;;;;;;;;11.50;11.00;;;;;21.48;40.56;101536.00;4959023;28;45552;-74
2023/02/21 13:47:52;;;;;;;;;13.25;10.50;;;;;21.47;40.07;101529.88;4947790;28;45344;-75
2023/02/21 13:50:33;;;;;;;;;9.75;8.50;;;;;21.47;40.15;101524.59;4957022;28;45447;-76